Flight Track Log - Related Links

Times and Time Zones

All times are in EDT time to prevent confusion due to time zone crossing. See the N443DW flight status page for this flight to view local times or setup timezone preferences in your user account.

Time Position Orientation Groundspeed Altitude Reporting Facility
EDT Latitude Longitude Course Direction KTS MPH feet Rate Location/Type
Sun 03:47:24 PM 45.3828 -84.9139 132° Southeast 169 194 4,100  Level Minneapolis Center
Sun 03:48:26 PM 45.3503 -84.8653 134° Southeast 169 194 6,200 2,129 Climbing Minneapolis Center
Sun 03:49:28 PM 45.3117 -84.7961 128° Southeast 181 208 8,500 2,081 Climbing Minneapolis Center
Sun 03:50:30 PM 45.2767 -84.7275 126° Southeast 199 229 10,500 1,984 Climbing Minneapolis Center
Sun 03:51:32 PM 45.2417 -84.6628 128° Southeast 207 238 12,600 1,984 Climbing Minneapolis Center
Sun 03:52:00 PM 45.1920 -84.5362 132° Southeast  Level Estimated
Sun 03:52:34 PM 45.2042 -84.5947 128° Southeast 206 237 14,600  Level Minneapolis Center
Sun 03:53:36 PM 45.1678 -84.5294 128° Southeast 212 244 16,500 1,824 Climbing Minneapolis Center
Sun 03:54:39 PM 45.1278 -84.4633 131° Southeast 209 241 18,400 1,440 Climbing Minneapolis Center
Sun 03:55:41 PM 45.0881 -84.3961 130° Southeast 211 243 19,500 1,161 Climbing Minneapolis Center
Sun 03:56:43 PM 45.0436 -84.3261 132° Southeast 229 264 20,800 1,258 Climbing Minneapolis Center
Sun 03:57:45 PM 45.0019 -84.2556 130° Southeast 234 269 22,100 1,210 Climbing Minneapolis Center
Sun 03:58:47 PM 44.9619 -84.1836 128° Southeast 233 268 23,300 1,161 Climbing Minneapolis Center
Sun 03:59:49 PM 44.9222 -84.1114 128° Southeast 234 269 24,500 968 Climbing Minneapolis Center
Sun 04:00:51 PM 44.8914 -84.0533 127° Southeast 232 267 25,300 919 Climbing Minneapolis Center
Sun 04:01:53 PM 44.8344 -83.9544 129° Southeast 232 267 26,400 912 Climbing Minneapolis Center
Sun 04:02:56 PM 44.7897 -83.8819 131° Southeast 240 276 27,200 768 Climbing Minneapolis Center
Sun 04:03:58 PM 44.7492 -83.8100 128° Southeast 239 275 28,000 581 Climbing Minneapolis Center
Sun 04:05:00 PM 44.7078 -83.7386 129° Southeast 235 270 28,400 387 Climbing Minneapolis Center
Sun 04:06:02 PM 44.6636 -83.6639 130° Southeast 244 281 28,800 290 Climbing Minneapolis Center
Sun 04:07:04 PM 44.6086 -83.5708 130° Southeast 254 292 29,000 48 Climbing Minneapolis Center
Sun 04:08:06 PM 44.5608 -83.4892 129° Southeast 265 305 28,900  Descending Minneapolis Center
Sun 04:09:08 PM 44.5083 -83.4044 131° Southeast 281 323 29,000 48 Climbing Minneapolis Center
Sun 04:10:10 PM 44.4594 -83.3197 129° Southeast 281 323 29,000  Level Minneapolis Center
Sun 04:11:12 PM 44.4103 -83.2314 128° Southeast 287 330 29,000  Level Minneapolis Center
Sun 04:12:14 PM 44.3600 -83.1469 130° Southeast 284 327 29,000  Level Minneapolis Center
Sun 04:12:53 PM 44.3167 -83.0833 134° Southeast 280 322 29,000  Level Toronto Center
Sun 04:13:53 PM 44.2500 -82.9833 133° Southeast 280 322 29,000  Level Toronto Center
Sun 04:14:53 PM 44.2000 -82.9167 136° Southeast 280 322 29,000  Level Toronto Center
Sun 04:15:53 PM 44.1500 -82.8167 125° Southeast 280 322 29,000  Level Toronto Center
Sun 04:16:53 PM 44.1000 -82.7500 136° Southeast 270 311 29,000  Level Toronto Center
Sun 04:17:25 PM 44.1011 -82.7189 87° East 275 316 29,000  Level Minneapolis Center
Sun 04:18:27 PM 44.0528 -82.6383 130° Southeast 273 314 29,000  Level Minneapolis Center
Sun 04:19:29 PM 43.9936 -82.5408 130° Southeast 275 316 29,000  Level Minneapolis Center
Sun 04:20:31 PM 43.9436 -82.4614 131° Southeast 274 315 29,000  Level Minneapolis Center
Sun 04:21:46 PM 43.8856 -82.3653 130° Southeast 272 313 29,000  Level Minneapolis Center
Sun 04:22:48 PM 43.8375 -82.2861 130° Southeast 270 311 29,000  Level Minneapolis Center
Sun 04:23:50 PM 43.7878 -82.2075 131° Southeast 271 312 29,000  Level Minneapolis Center
Sun 04:24:52 PM 43.7317 -82.1144 130° Southeast 270 311 29,000  Level Minneapolis Center
Sun 04:25:53 PM 43.6667 -82.0333 138° Southeast 270 311 29,000  Level Toronto Center
Sun 04:26:53 PM 43.6167 -81.9333 125° Southeast 270 311 29,000  Level Toronto Center
Sun 04:27:53 PM 43.5833 -81.8667 125° Southeast 270 311 29,000  Level Toronto Center
Sun 04:28:53 PM 43.5333 -81.8000 136° Southeast 270 311 29,000  Level Toronto Center
Sun 04:29:53 PM 43.4833 -81.7167 130° Southeast 270 311 29,000  Level Toronto Center
Sun 04:30:53 PM 43.4333 -81.6333 130° Southeast 270 311 29,000  Level Toronto Center
Sun 04:31:53 PM 43.3833 -81.5667 136° Southeast 270 311 29,000  Level Toronto Center
Sun 04:32:53 PM 43.3333 -81.4833 130° Southeast 270 311 29,000  Level Toronto Center
Sun 04:33:53 PM 43.2833 -81.4000 129° Southeast 270 311 29,000  Level Toronto Center
Sun 04:34:53 PM 43.2167 -81.3333 144° Southeast 270 311 29,000  Level Toronto Center
Sun 04:35:53 PM 43.1833 -81.2500 119° Southeast 270 311 29,000  Level Toronto Center
Sun 04:36:53 PM 43.1167 -81.1667 138° Southeast 270 311 29,000  Level Toronto Center
Sun 04:37:53 PM 43.0667 -81.1000 136° Southeast 270 311 29,000  Level Toronto Center
Sun 04:38:53 PM 43.0333 -81.0167 119° Southeast 270 311 29,000  Level Toronto Center
Sun 04:39:52 PM 42.9833 -80.9333 129° Southeast 270 311 29,000  Level Toronto Center
Sun 04:40:52 PM 42.9167 -80.8667 144° Southeast 270 311 29,000  Level Toronto Center
Sun 04:41:52 PM 42.8833 -80.8000 124° Southeast 270 311 29,000  Level Toronto Center
Sun 04:42:24 PM 42.8728 -80.7731 118° Southeast 271 312 29,000  Level Cleveland Center
Sun 04:43:24 PM 42.8228 -80.6992 133° Southeast 271 312 29,000  Level Cleveland Center
Sun 04:44:24 PM 42.7728 -80.6256 133° Southeast 265 305 29,000  Level Cleveland Center
Sun 04:45:24 PM 42.7208 -80.5464 132° Southeast 265 305 29,000  Level Cleveland Center
Sun 04:46:24 PM 42.6706 -80.4675 131° Southeast 265 305 29,000  Level Cleveland Center
Sun 04:47:24 PM 42.6225 -80.3914 131° Southeast 270 311 29,000  Level Cleveland Center
Sun 04:48:24 PM 42.5767 -80.3208 131° Southeast 257 296 29,000  Level Cleveland Center
Sun 04:49:24 PM 42.5286 -80.2450 131° Southeast 265 305 29,000  Level Cleveland Center
Sun 04:50:24 PM 42.4825 -80.1722 131° Southeast 260 299 29,000  Level Cleveland Center
Sun 04:51:24 PM 42.4322 -80.0967 132° Southeast 266 306 29,000  Level Cleveland Center
Sun 04:52:24 PM 42.3817 -80.0267 134° Southeast 266 306 29,000  Level Cleveland Center
Sun 04:53:24 PM 42.3397 -79.9653 133° Southeast 266 306 29,000  Level Cleveland Center
Sun 04:54:24 PM 42.2936 -79.8900 130° Southeast 266 306 29,000  Level Cleveland Center
Sun 04:55:24 PM 42.2450 -79.8175 132° Southeast 266 306 29,000  Level Cleveland Center
Sun 04:56:24 PM 42.1903 -79.7397 134° Southeast 266 306 29,000  Level Cleveland Center
Sun 04:57:24 PM 42.1397 -79.6675 133° Southeast 266 306 29,000  Level Cleveland Center
Sun 04:58:24 PM 42.0892 -79.5928 132° Southeast 266 306 29,000  Level Cleveland Center
Sun 04:59:24 PM 42.0406 -79.5153 130° Southeast 266 306 29,000  Level Cleveland Center
Sun 05:00:24 PM 41.9958 -79.4350 127° Southeast 266 306 29,000  Level Cleveland Center
Sun 05:01:24 PM 41.9514 -79.3547 127° Southeast 271 312 29,000  Level Cleveland Center
Sun 05:02:24 PM 41.9131 -79.2886 128° Southeast 271 312 29,000 -500 Level Cleveland Center
Sun 05:03:24 PM 41.8556 -79.1864 127° Southeast 276 318 28,000 -500 Descending Cleveland Center
Sun 05:04:24 PM 41.8067 -79.1011 128° Southeast 288 331 28,000 -350 Level Cleveland Center
Sun 05:05:24 PM 41.7575 -79.0161 128° Southeast 288 331 27,300 -800 Descending Cleveland Center
Sun 05:06:24 PM 41.7042 -78.9200 127° Southeast 301 346 26,400 -700 Descending Cleveland Center
Sun 05:07:24 PM 41.6506 -78.8325 129° Southeast 306 352 25,900 -500 Descending Cleveland Center
Sun 05:08:24 PM 41.5992 -78.7422 127° Southeast 306 352 25,400 -450 Descending Cleveland Center
Sun 05:09:24 PM 41.5436 -78.6606 132° Southeast 306 352 25,000 -200 Descending Cleveland Center
Sun 05:10:24 PM 41.4778 -78.5931 142° Southeast 294 338 25,000  Level Cleveland Center
Sun 05:11:24 PM 41.4164 -78.5286 142° Southeast 288 331 25,000  Level Cleveland Center
Sun 05:13:40 PM 41.2872 -78.3894 141° Southeast 263 303 25,000  Level New York Center
Sun 05:14:41 PM 41.2289 -78.3250 140° Southeast 268 308 25,000  Level New York Center
Sun 05:15:41 PM 41.1683 -78.2631 142° Southeast 268 308 25,000  Level New York Center
Sun 05:16:39 PM 41.1039 -78.1925 140° Southeast 268 308 25,000  Level New York Center
Sun 05:17:39 PM 41.0492 -78.1344 141° Southeast 284 327 25,000  Level New York Center
Sun 05:18:40 PM 40.9906 -78.0703 140° Southeast 284 327 25,000  Level New York Center
Sun 05:19:40 PM 40.9297 -78.0086 143° Southeast 284 327 25,000  Level New York Center
Sun 05:20:41 PM 40.8708 -77.9475 142° Southeast 284 327 25,000  Level New York Center
Sun 05:21:39 PM 40.8083 -77.8806 141° Southeast 284 327 25,000  Level New York Center
Sun 05:22:40 PM 40.7497 -77.8142 139° Southeast 284 327 25,000  Level New York Center
Sun 05:23:41 PM 40.6914 -77.7425 137° Southeast 284 327 25,000  Level New York Center
Sun 05:24:39 PM 40.6378 -77.6633 132° Southeast 284 327 25,000  Level New York Center
Sun 05:25:40 PM 40.5883 -77.5817 129° Southeast 289 333 25,000  Level New York Center
Sun 05:26:40 PM 40.5411 -77.4950 126° Southeast 289 333 25,000  Level New York Center
Sun 05:27:41 PM 40.4983 -77.4036 122° Southeast 295 339 25,000  Level New York Center
Sun 05:28:42 PM 40.4581 -77.3042 118° Southeast 302 348 25,000  Level New York Center
Sun 05:29:39 PM 40.4086 -77.2178 127° Southeast 302 348 25,000  Level New York Center
Sun 05:30:39 PM 40.3656 -77.1264 122° Southeast 297 342 25,000  Level New York Center
Sun 05:31:40 PM 40.3442 -77.0211 105° East 297 342 25,000  Level New York Center
Sun 05:32:40 PM 40.3353 -76.9114 96° East 297 342 25,000 -248 Level New York Center
Sun 05:33:41 PM 40.3325 -76.7994 92° East 302 348 24,500 -908 Descending New York Center
Sun 05:34:39 PM 40.3022 -76.6986 111° Southeast 302 348 23,200 -1,513 Descending New York Center
Sun 05:35:40 PM 40.2439 -76.6175 133° Southeast 290 334 21,500 -1,820 Descending New York Center
Sun 05:36:41 PM 40.1850 -76.5419 136° Southeast 290 334 19,500 -2,950 Descending New York Center
Sun 05:38:39 PM 40.0833 -76.3500 125° Southeast 301 346 12,700 -3,209 Descending Potomac TRACON
Sun 05:39:33 PM 40.0333 -76.2833 134° Southeast 289 333 10,300 -1,474 Descending Potomac TRACON
Sun 05:40:33 PM 39.9833 -76.2000 128° Southeast 291 335 9,900 -200 Descending Potomac TRACON
Sun 05:41:33 PM 39.9167 -76.1833 169° South 262 302 9,900 100 Level Potomac TRACON
Sun 05:42:33 PM 39.8500 -76.1833 180° South 260 299 10,100  Climbing Potomac TRACON
Sun 05:43:33 PM 39.7667 -76.1833 180° South 259 298 9,900  Descending Potomac TRACON
Sun 05:44:33 PM 39.7000 -76.2000 191° South 246 283 10,100 -900 Climbing Potomac TRACON
Sun 05:45:33 PM 39.6500 -76.2333 207° Southwest 247 284 8,100 -2,504 Descending Potomac TRACON
Sun 05:46:28 PM 39.5833 -76.2500 191° South 253 291 5,300 -2,579 Descending Potomac TRACON
Sun 05:47:34 PM 39.5167 -76.2667 191° South 235 270 2,900 -1,600 Descending Potomac TRACON
Sun 05:48:28 PM 39.4667 -76.3000 207° Southwest 201 231 2,100 -526 Descending Potomac TRACON
Sun 05:49:28 PM 39.4167 -76.3500 218° Southwest 199 229 1,900 -250 Descending Potomac TRACON
Sun 05:50:28 PM 39.3833 -76.4000 229° Southwest 172 198 1,600 -429 Descending Potomac TRACON
Sun 05:51:34 PM 39.3667 -76.4333 237° Southwest 125 144 1,000 -545 Descending Potomac TRACON

Login

Don't have an account? Register now (free) for customized features, flight alerts, and more!